Time,TemperatureF,DewpointF,PressureIn,WindDirection,WindDirectionDegrees,WindSpeedMPH,WindSpeedGustMPH,Humidity,HourlyPrecipIn,Conditions,Clouds,dailyrainin,SoftwareType,DateUTC
2013-07-01 00:53:00,52.0,33.0,-100.00,ESE,103,3.0,6.0,49,0.00,,,0.15,,2013-07-01 06:53:00,
2013-07-01 01:01:00,52.0,33.0,-100.00,ESE,103,3.0,6.0,49,0.00,,,0.15,,2013-07-01 07:01:00,
2013-07-01 01:11:00,52.0,33.0,-100.00,ESE,103,3.0,6.0,49,0.00,,,0.15,,2013-07-01 07:11:00,
2013-07-01 01:22:00,52.0,33.0,-100.00,ESE,103,3.0,6.0,49,0.00,,,0.15,,2013-07-01 07:22:00,
2013-07-01 01:53:00,52.0,33.0,-100.00,NW,316,2.0,5.0,49,0.00,,,-99.99,,2013-07-01 07:53:00,
2013-07-01 02:01:00,52.0,33.0,-100.00,NW,316,2.0,5.0,49,0.00,,,-99.99,,2013-07-01 08:01:00,
2013-07-01 02:52:00,51.0,34.0,-100.00,NNW,342,2.0,7.0,52,0.00,,,0.15,,2013-07-01 08:52:00,
2013-07-01 03:53:00,50.0,34.0,-100.00,SSE,163,0.0,4.0,55,0.00,,,0.15,,2013-07-01 09:53:00,
2013-07-01 04:03:00,50.0,34.0,-100.00,SSE,163,0.0,4.0,55,0.00,,,0.15,,2013-07-01 10:03:00,
2013-07-01 04:11:00,50.0,34.0,-100.00,SSE,163,0.0,4.0,55,0.00,,,0.15,,2013-07-01 10:11:00,
2013-07-01 04:22:00,50.0,34.0,-100.00,SSE,163,0.0,4.0,55,0.00,,,0.15,,2013-07-01 10:22:00,
2013-07-01 04:52:00,50.0,34.0,-100.00,SSE,165,2.0,7.0,54,0.00,,,0.15,,2013-07-01 10:52:00,
2013-07-01 05:02:00,50.0,34.0,-100.00,SSE,165,2.0,7.0,54,0.00,,,0.15,,2013-07-01 11:02:00,
2013-07-01 05:11:00,50.0,34.0,-100.00,SSE,165,2.0,7.0,54,0.00,,,0.15,,2013-07-01 11:11:00,
2013-07-01 05:22:00,50.0,34.0,-100.00,SSE,165,2.0,7.0,54,0.00,,,0.15,,2013-07-01 11:22:00,
2013-07-01 05:52:00,48.0,34.0,-100.00,South,186,0.0,4.0,58,0.00,,,0.15,,2013-07-01 11:52:00,
2013-07-01 06:01:00,48.0,34.0,-100.00,South,186,0.0,4.0,58,0.00,,,0.15,,2013-07-01 12:01:00,
2013-07-01 06:11:00,48.0,34.0,-100.00,South,186,0.0,4.0,58,0.00,,,0.15,,2013-07-01 12:11:00,
2013-07-01 06:22:00,48.0,34.0,-100.00,South,186,0.0,4.0,58,0.00,,,0.15,,2013-07-01 12:22:00,
2013-07-01 07:02:00,49.0,34.0,-100.00,SW,223,4.0,6.0,57,0.00,,,0.15,,2013-07-01 13:02:00,
2013-07-01 07:12:00,49.0,34.0,-100.00,SW,223,4.0,6.0,57,0.00,,,0.15,,2013-07-01 13:12:00,
2013-07-01 07:23:00,49.0,34.0,-100.00,SW,223,4.0,6.0,57,0.00,,,0.15,,2013-07-01 13:23:00,
2013-07-01 08:53:00,57.0,41.0,-100.00,NNW,333,2.0,7.0,54,0.00,,,0.15,,2013-07-01 14:53:00,
2013-07-01 09:02:00,57.0,41.0,-100.00,NNW,333,2.0,7.0,54,0.00,,,0.15,,2013-07-01 15:02:00,
2013-07-01 09:11:00,57.0,41.0,-100.00,NNW,333,2.0,7.0,54,0.00,,,0.15,,2013-07-01 15:11:00,
2013-07-01 09:23:00,57.0,41.0,-100.00,NNW,333,2.0,7.0,54,0.00,,,0.15,,2013-07-01 15:23:00,
2013-07-01 09:53:00,59.0,37.0,-100.00,NNE,28,5.0,11.0,44,0.00,,,0.15,,2013-07-01 15:53:00,
2013-07-01 10:01:00,59.0,37.0,-100.00,NNE,28,5.0,11.0,44,0.00,,,0.15,,2013-07-01 16:01:00,
2013-07-01 10:11:00,59.0,37.0,-100.00,NNE,28,5.0,11.0,44,0.00,,,0.15,,2013-07-01 16:11:00,
2013-07-01 10:22:00,59.0,37.0,-100.00,NNE,28,5.0,11.0,44,0.00,,,0.15,,2013-07-01 16:22:00,
2013-07-01 10:53:00,59.0,37.0,-100.00,NW,326,8.0,14.0,43,0.00,,,0.15,,2013-07-01 16:53:00,
2013-07-01 11:02:00,59.0,37.0,-100.00,NW,326,8.0,14.0,43,0.00,,,0.15,,2013-07-01 17:02:00,
2013-07-01 11:12:00,59.0,37.0,-100.00,NW,326,8.0,14.0,43,0.00,,,0.15,,2013-07-01 17:12:00,
2013-07-01 11:23:00,59.0,37.0,-100.00,NW,326,8.0,14.0,43,0.00,,,0.15,,2013-07-01 17:23:00,
2013-07-01 11:53:00,63.0,35.0,-100.00,NNE,14,5.0,14.0,35,0.00,,,0.15,,2013-07-01 17:53:00,
2013-07-01 12:02:00,63.0,35.0,-100.00,NNE,14,5.0,14.0,35,0.00,,,0.15,,2013-07-01 18:02:00,
2013-07-01 12:11:00,63.0,35.0,-100.00,NNE,14,5.0,14.0,35,0.00,,,0.15,,2013-07-01 18:11:00,
2013-07-01 12:22:00,63.0,35.0,-100.00,NNE,14,5.0,14.0,35,0.00,,,0.15,,2013-07-01 18:22:00,
2013-07-01 12:53:00,64.0,39.0,-100.00,West,269,13.0,24.0,39,0.00,,,0.15,,2013-07-01 18:53:00,
2013-07-01 13:02:00,64.0,39.0,-100.00,West,269,13.0,24.0,39,0.00,,,0.15,,2013-07-01 19:02:00,
2013-07-01 13:11:00,64.0,39.0,-100.00,West,269,13.0,24.0,39,0.00,,,0.15,,2013-07-01 19:11:00,
2013-07-01 13:22:00,64.0,39.0,-100.00,West,269,13.0,24.0,39,0.00,,,0.15,,2013-07-01 19:22:00,
2013-07-01 13:53:00,65.0,37.0,-100.00,NW,322,13.0,36.0,36,0.00,,,0.15,,2013-07-01 19:53:00,
2013-07-01 14:02:00,65.0,37.0,-100.00,NW,322,13.0,36.0,36,0.00,,,0.15,,2013-07-01 20:02:00,
2013-07-01 14:11:00,65.0,37.0,-100.00,NW,322,13.0,36.0,36,0.00,,,0.15,,2013-07-01 20:11:00,
2013-07-01 14:22:00,65.0,37.0,-100.00,NW,322,13.0,36.0,36,0.00,,,0.15,,2013-07-01 20:22:00,
2013-07-01 14:52:00,62.0,38.0,-100.00,West,279,10.0,39.0,41,0.00,,,0.15,,2013-07-01 20:52:00,
2013-07-01 15:01:00,62.0,38.0,-100.00,West,279,10.0,39.0,41,0.00,,,0.15,,2013-07-01 21:01:00,
2013-07-01 15:11:00,62.0,38.0,-100.00,West,279,10.0,39.0,41,0.00,,,0.15,,2013-07-01 21:11:00,
2013-07-01 15:24:00,62.0,38.0,-100.00,West,279,10.0,39.0,41,0.00,,,0.15,,2013-07-01 21:24:00,
2013-07-01 15:53:00,61.0,33.0,-100.00,North,350,16.0,35.0,35,0.00,,,0.15,,2013-07-01 21:53:00,
2013-07-01 16:01:00,61.0,33.0,-100.00,North,350,16.0,35.0,35,0.00,,,0.15,,2013-07-01 22:01:00,
2013-07-01 16:11:00,61.0,33.0,-100.00,North,350,16.0,35.0,35,0.00,,,0.15,,2013-07-01 22:11:00,
2013-07-01 16:23:00,61.0,33.0,-100.00,North,350,16.0,35.0,35,0.00,,,0.15,,2013-07-01 22:23:00,
2013-07-01 16:53:00,60.0,37.0,-100.00,ENE,62,10.0,49.0,43,0.00,,,0.14,,2013-07-01 22:53:00,
2013-07-01 17:01:00,60.0,37.0,-100.00,ENE,62,10.0,49.0,43,0.00,,,0.14,,2013-07-01 23:01:00,
2013-07-01 17:11:00,60.0,37.0,-100.00,ENE,62,10.0,49.0,43,0.00,,,0.14,,2013-07-01 23:11:00,
2013-07-01 17:22:00,60.0,37.0,-100.00,ENE,62,10.0,49.0,43,0.00,,,0.14,,2013-07-01 23:22:00,
2013-07-01 17:53:00,64.0,39.0,-100.00,NE,45,9.0,28.0,39,0.00,,,0.14,,2013-07-01 23:53:00,
2013-07-01 18:01:00,64.0,39.0,-100.00,NE,45,9.0,28.0,39,0.00,,,0.14,,2013-07-02 00:01:00,
2013-07-01 18:12:00,64.0,39.0,-100.00,NE,45,9.0,28.0,39,0.00,,,0.14,,2013-07-02 00:12:00,
2013-07-01 18:22:00,64.0,39.0,-100.00,NE,45,9.0,28.0,39,0.00,,,0.14,,2013-07-02 00:22:00,
2013-07-01 18:53:00,62.0,39.0,-100.00,ENE,61,7.0,26.0,42,0.00,,,0.14,,2013-07-02 00:53:00,
2013-07-01 19:01:00,62.0,39.0,-100.00,ENE,61,7.0,26.0,42,0.00,,,0.14,,2013-07-02 01:01:00,
2013-07-01 19:11:00,62.0,39.0,-100.00,ENE,61,7.0,26.0,42,0.00,,,0.14,,2013-07-02 01:11:00,
2013-07-01 19:22:00,62.0,39.0,-100.00,ENE,61,7.0,26.0,42,0.00,,,0.14,,2013-07-02 01:22:00,
2013-07-01 19:53:00,63.0,38.0,-100.00,NNE,31,7.0,20.0,40,0.00,,,0.03,,2013-07-02 01:53:00,
2013-07-01 20:02:00,63.0,38.0,-100.00,NNE,31,7.0,20.0,40,0.00,,,0.03,,2013-07-02 02:02:00,
2013-07-01 20:11:00,63.0,38.0,-100.00,NNE,31,7.0,20.0,40,0.00,,,0.03,,2013-07-02 02:11:00,
2013-07-01 20:22:00,63.0,38.0,-100.00,NNE,31,7.0,20.0,40,0.00,,,0.03,,2013-07-02 02:22:00,
2013-07-01 20:53:00,55.0,38.0,-100.00,ENE,67,8.0,30.0,53,0.00,,,0.00,,2013-07-02 02:53:00,
2013-07-01 21:01:00,55.0,38.0,-100.00,ENE,67,8.0,30.0,53,0.00,,,0.00,,2013-07-02 03:01:00,
2013-07-01 21:12:00,55.0,38.0,-100.00,ENE,67,8.0,30.0,53,0.00,,,0.00,,2013-07-02 03:12:00,
2013-07-01 21:24:00,55.0,38.0,-100.00,ENE,67,8.0,30.0,53,0.00,,,0.00,,2013-07-02 03:24:00,
2013-07-01 21:53:00,54.0,38.0,-100.00,East,94,5.0,28.0,54,0.00,,,0.00,,2013-07-02 03:53:00,
2013-07-01 22:02:00,54.0,38.0,-100.00,East,94,5.0,28.0,54,0.00,,,0.00,,2013-07-02 04:02:00,
2013-07-01 22:11:00,54.0,38.0,-100.00,East,94,5.0,28.0,54,0.00,,,0.00,,2013-07-02 04:11:00,
2013-07-01 22:22:00,54.0,38.0,-100.00,East,94,5.0,28.0,54,0.00,,,0.00,,2013-07-02 04:22:00,
2013-07-01 22:53:00,52.0,37.0,-100.00,ENE,65,5.0,15.0,56,0.00,,,0.00,,2013-07-02 04:53:00,
2013-07-01 23:01:00,52.0,37.0,-100.00,ENE,65,5.0,15.0,56,0.00,,,0.00,,2013-07-02 05:01:00,
2013-07-01 23:11:00,52.0,37.0,-100.00,ENE,65,5.0,15.0,56,0.00,,,0.00,,2013-07-02 05:11:00,
2013-07-01 23:22:00,52.0,37.0,-100.00,ENE,65,5.0,15.0,56,0.00,,,0.00,,2013-07-02 05:22:00,
2013-07-01 23:53:00,52.0,37.0,-100.00,ENE,63,3.0,12.0,56,0.00,,,0.00,,2013-07-02 05:53:00,